• Join FlightAware (Why Join?)
  • Login
  • US Flag 
09:05AM EDT


 

Airport Tracker/Info


-or-


 

Live Flight TrackerFlight Track Log ✈ EGF4178 ✈ 12-May-2013 ✈ KORD - KCMI

Flight Track Log - Related Links

Times and Time Zones

All times are in EDT time to prevent confusion due to time zone crossing. See the EGF4178 flight status page for this flight to view local times or setup timezone preferences in your user account.

Time Position Orientation Groundspeed Altitude Reporting Facility
EDT Latitude Longitude Course Direction KTS MPH feet Rate Location/Type
08:43PM 41.9667 -87.8667 197° South 164 189 2,100  Level Chicago TRACON
08:44PM 41.9333 -87.8167 132° Southeast 227 261 4,900 900 Climbing Chicago TRACON
08:46PM 41.7761 -87.7764 169° South 265 305 5,100 1,080 Climbing Chicago Center
08:47PM 41.7086 -87.8056 198° South 261 300 8,500 2,820 Climbing Chicago Center
08:48PM 41.3672 -88.0265 197° South  Level Estimated
08:48PM 41.6414 -87.8572 210° Southwest 274 315 11,000  Level Chicago Center
08:49PM 41.5661 -87.9128 209° Southwest 302 348 13,600 1,980 Climbing Chicago Center
08:50PM 41.4758 -87.9475 196° South 339 390 15,100 1,260 Climbing Chicago Center
08:51PM 41.3686 -87.9708 189° South 374 430 16,300 900 Climbing Chicago Center
08:52PM 41.2544 -87.9964 190° South 401 461 17,000 300 Climbing Chicago Center
08:53PM 41.1175 -88.0292 190° South 415 478 17,000  Level Chicago Center
08:54PM 41.0019 -88.0561 190° South 420 483 17,000  Level Chicago Center
08:55PM 40.8867 -88.0808 189° South 421 484 17,100 -540 Climbing Chicago Center
08:56PM 40.7744 -88.1083 191° South 415 478 16,000 -1,800 Descending Chicago Center
08:58PM 40.6683 -88.1319 190° South 396 456 13,500 -2,280 Descending Chicago Center
08:59PM 40.5678 -88.1567 191° South 373 429 11,300 -1,200 Descending Chicago Center
09:00PM 40.4486 -88.1831 190° South 364 419 11,100 -600 Descending Chicago Center
09:01PM 40.3542 -88.2053 190° South 350 403 10,100 -1,320 Descending Chicago Center
09:02PM 40.2728 -88.2225 189° South 302 348 8,400 -1,620 Descending Chicago Center
09:03PM 40.1958 -88.2092 172° South 283 326 6,800 -1,560 Descending Chicago Center